Warren, New Jersey
Current Conditions -  °F | °C
As of 1:53 AM on Sunday 26 Oct 2014 (Local Time) from KSMQ Reporting Station
Overcast Overcast  
Wind Chill: 58°   Ceiling: 10000
Heat Index: 58°   Visibility: 10mi
Dew Point: 46°   Wind: 3mph
Humidity: 65%   Direction: 300°WNW
Pressure: 29.57"   Gusts: NA
Location:  40.63°N, 74.51°W
Report Text: KSMQ 260553Z AUTO 30003KT 10SM FEW070 OVC100 14/08 A2957 RMK AO2 SLP012 T01440078 10161 20128 56006
Loading
Personal Weather Stations






























Interactive Weather Map New forecast layout! Learn more

10-Day Weather Forecast

Advertisements
Track Severe Weather on mobile